createdAt,value
2022-09-06T00:01:36.953Z,100509.41
2022-09-06T00:04:05.169Z,100513.19
2022-09-06T00:06:33.285Z,100504.25
2022-09-06T00:09:02.759Z,100508.81
2022-09-06T00:11:30.767Z,100500.69
2022-09-06T00:13:58.759Z,100504.47
2022-09-06T00:16:30.308Z,100499.03
2022-09-06T00:18:58.644Z,100500.94
2022-09-06T00:21:27.819Z,100509.88
2022-09-06T00:23:55.869Z,100495.72
2022-09-06T00:26:25.264Z,100509.25
2022-09-06T00:28:53.283Z,100511.97
2022-09-06T00:31:22.818Z,100504.91
2022-09-06T00:33:51.022Z,100498.69
2022-09-06T00:36:19.007Z,100503.22
2022-09-06T00:38:47.009Z,100499.50
2022-09-06T00:41:15.898Z,100503.22
2022-09-06T00:43:45.275Z,100508.66
2022-09-06T00:46:15.191Z,100513.25
2022-09-06T00:48:43.338Z,100508.66
2022-09-06T00:51:12.455Z,100512.22
2022-09-06T00:53:40.399Z,100518.44
2022-09-06T00:56:08.500Z,100514.06
2022-09-06T00:58:36.645Z,100509.50
2022-09-06T01:01:06.767Z,100509.50
2022-09-06T01:03:35.167Z,100519.47
2022-09-06T01:06:20.177Z,100521.16
2022-09-06T01:08:57.896Z,100516.78
2022-09-06T01:11:50.372Z,100514.06
2022-09-06T01:14:23.357Z,100519.47
2022-09-06T01:16:57.358Z,100523.25
2022-09-06T01:20:03.816Z,100521.59
2022-09-06T01:22:53.944Z,100525.13
2022-09-06T01:25:36.152Z,100521.59
2022-09-06T01:28:23.957Z,100528.91
2022-09-06T01:30:53.594Z,100531.59
2022-09-06T01:33:23.809Z,100526.41
2022-09-06T01:35:54.150Z,100523.69
2022-09-06T01:38:22.185Z,100532.88
2022-09-06T01:40:50.221Z,100531.81
2022-09-06T01:43:25.646Z,100532.88
2022-09-06T01:45:58.596Z,100532.03
2022-09-06T01:48:31.618Z,100534.72
2022-09-06T01:51:03.823Z,100535.59
2022-09-06T01:53:40.580Z,100532.88
2022-09-06T01:56:10.184Z,100536.63
2022-09-06T01:59:00.349Z,100525.78
2022-09-06T02:01:30.400Z,100523.91
2022-09-06T02:04:00.931Z,100521.19
2022-09-06T02:06:30.337Z,100527.47
2022-09-06T02:08:59.729Z,100521.19
2022-09-06T02:11:27.846Z,100517.66
2022-09-06T02:13:57.921Z,100522.06
2022-09-06T02:16:27.500Z,100520.38
2022-09-06T02:18:56.418Z,100525.78
2022-09-06T02:21:27.354Z,100524.16
2022-09-06T02:23:55.321Z,100529.56
2022-09-06T02:26:24.555Z,100522.47
2022-09-06T02:28:52.556Z,100523.31
2022-09-06T02:31:23.583Z,100517.06
2022-09-06T02:33:51.816Z,100519.75
2022-09-06T02:36:19.814Z,100520.81
2022-09-06T02:38:48.020Z,100524.59
2022-09-06T02:41:16.668Z,100517.28
2022-09-06T02:43:44.824Z,100519.19
2022-09-06T02:46:12.915Z,100520.22
2022-09-06T02:48:42.451Z,100516.47
2022-09-06T02:51:10.627Z,100514.78
2022-09-06T02:53:38.703Z,100513.97
2022-09-06T02:56:07.164Z,100510.44
2022-09-06T02:58:35.184Z,100512.09
2022-09-06T03:01:03.234Z,100513.97
2022-09-06T03:03:31.236Z,100511.28
2022-09-06T03:06:00.677Z,100505.03
2022-09-06T03:08:33.564Z,100515.84
2022-09-06T03:11:01.815Z,100511.28
2022-09-06T03:13:29.831Z,100502.31
2022-09-06T03:15:59.616Z,100503.34
2022-09-06T03:18:28.411Z,100500.66
2022-09-06T03:20:56.754Z,100505.03
2022-09-06T03:23:27.150Z,100508.78
2022-09-06T03:25:55.204Z,100503.34
2022-09-06T03:28:23.355Z,100507.13
2022-09-06T03:30:52.066Z,100502.53
2022-09-06T03:33:20.412Z,100507.13
2022-09-06T03:35:52.163Z,100502.78
2022-09-06T03:38:20.307Z,100500.06
2022-09-06T03:40:49.997Z,100494.66
2022-09-06T03:43:18.620Z,100492.16
2022-09-06T03:45:47.081Z,100496.75
2022-09-06T03:48:15.188Z,100502.16
2022-09-06T03:50:45.874Z,100495.09
2022-09-06T03:53:13.872Z,100495.09
2022-09-06T03:55:41.871Z,100495.09
2022-09-06T03:58:11.286Z,100493.44
2022-09-06T04:00:39.436Z,100492.59
2022-09-06T04:03:07.495Z,100485.31
2022-09-06T04:05:35.510Z,100490.72
2022-09-06T04:08:04.003Z,100488.03
2022-09-06T04:10:32.094Z,100490.72
2022-09-06T04:13:00.087Z,100488.84
2022-09-06T04:15:29.426Z,100490.72
2022-09-06T04:17:58.457Z,100498.84
2022-09-06T04:20:26.490Z,100495.31
2022-09-06T04:22:54.575Z,100493.44
2022-09-06T04:25:22.558Z,100493.44
2022-09-06T04:27:50.536Z,100488.84
2022-09-06T04:30:18.644Z,100489.69
2022-09-06T04:32:48.024Z,100501.34
2022-09-06T04:35:16.087Z,100497.81
2022-09-06T04:37:44.172Z,100498.63
2022-09-06T04:40:12.684Z,100498.63
2022-09-06T04:42:40.734Z,100490.50
2022-09-06T04:45:09.692Z,100488.63
2022-09-06T04:47:37.748Z,100495.09
2022-09-06T04:50:07.980Z,100493.22
2022-09-06T04:52:35.978Z,100495.09
2022-09-06T04:55:03.968Z,100495.09
2022-09-06T04:57:31.999Z,100493.44
2022-09-06T05:00:00.000Z,100497.81
2022-09-06T05:02:28.521Z,100501.56
2022-09-06T05:04:57.352Z,100508.63
2022-09-06T05:07:27.193Z,100505.06
2022-09-06T05:09:55.165Z,100509.47
2022-09-06T05:12:23.196Z,100507.56
2022-09-06T05:14:51.190Z,100511.94
2022-09-06T05:17:19.180Z,100509.22
2022-09-06T05:19:47.909Z,100513.81
2022-09-06T05:22:15.884Z,100512.75
2022-09-06T05:24:46.245Z,100519.00
2022-09-06T05:27:14.356Z,100521.72
2022-09-06T05:29:42.352Z,100518.16
2022-09-06T05:32:10.420Z,100521.72
2022-09-06T05:34:38.495Z,100520.66
2022-09-06T05:37:06.602Z,100517.34
2022-09-06T05:39:34.638Z,100517.34
2022-09-06T05:42:06.709Z,100516.31
2022-09-06T05:44:34.883Z,100521.72
2022-09-06T05:47:02.916Z,100526.06
2022-09-06T05:49:31.042Z,100519.00
2022-09-06T05:51:59.089Z,100521.72
2022-09-06T05:54:27.368Z,100522.53
2022-09-06T05:56:55.366Z,100522.53
2022-09-06T05:59:24.766Z,100526.06
2022-09-06T06:01:53.772Z,100528.78
2022-09-06T06:04:22.463Z,100526.91
2022-09-06T06:06:50.563Z,100524.19
2022-09-06T06:09:18.818Z,100525.88
2022-09-06T06:11:46.834Z,100523.97
2022-09-06T06:14:14.880Z,100519.38
2022-09-06T06:16:44.353Z,100521.88
2022-09-06T06:19:12.556Z,100515.41
2022-09-06T06:21:40.574Z,100518.13
2022-09-06T06:24:09.157Z,100508.94
2022-09-06T06:26:37.274Z,100505.41
2022-09-06T06:29:08.187Z,100512.50
2022-09-06T06:31:36.893Z,100516.03
2022-09-06T06:34:06.300Z,100518.72
2022-09-06T06:36:34.798Z,100514.97
2022-09-06T06:39:03.162Z,100516.63
2022-09-06T06:41:32.370Z,100520.38
2022-09-06T06:44:01.391Z,100512.25
2022-09-06T06:46:31.245Z,100514.13
2022-09-06T06:48:59.218Z,100511.22
2022-09-06T06:51:29.847Z,100516.41
2022-09-06T06:53:57.949Z,100522.63
2022-09-06T06:56:26.763Z,100515.38
2022-09-06T06:58:55.805Z,100519.94
2022-09-06T07:01:24.268Z,100526.19
2022-09-06T07:03:52.458Z,100523.25
2022-09-06T07:06:21.002Z,100519.72
2022-09-06T07:08:50.719Z,100519.47
2022-09-06T07:11:21.604Z,100530.31
2022-09-06T07:13:52.383Z,100526.56
2022-09-06T07:16:21.324Z,100530.72
2022-09-06T07:18:52.590Z,100526.94
2022-09-06T07:21:37.520Z,100523.41
2022-09-06T07:24:09.386Z,100528.63
2022-09-06T07:26:38.471Z,100524.03
2022-09-06T07:29:07.304Z,100522.97
2022-09-06T07:34:25.239Z,100524.63
2022-09-06T07:36:53.612Z,100532.75
2022-09-06T07:39:23.198Z,100528.97
2022-09-06T07:41:51.626Z,100527.34
2022-09-06T07:44:19.659Z,100527.91
2022-09-06T07:46:47.829Z,100536.03
2022-09-06T07:49:15.968Z,100532.31
2022-09-06T07:51:44.429Z,100533.94
2022-09-06T07:54:29.959Z,100523.94
2022-09-06T07:57:00.104Z,100527.50
2022-09-06T07:59:28.359Z,100529.34
2022-09-06T08:01:56.406Z,100530.22
2022-09-06T08:04:24.508Z,100539.97
2022-09-06T08:09:41.173Z,100543.28
2022-09-06T08:12:10.837Z,100539.53
2022-09-06T08:14:38.881Z,100536.81
2022-09-06T08:17:06.950Z,100535.75
2022-09-06T08:19:35.612Z,100530.13
2022-09-06T08:22:03.660Z,100532.00
2022-09-06T08:24:32.870Z,100535.34
2022-09-06T08:27:00.901Z,100532.63
2022-09-06T08:29:30.381Z,100528.84
2022-09-06T08:31:58.475Z,100529.66
2022-09-06T08:34:26.689Z,100516.97
2022-09-06T08:36:54.727Z,100525.09
2022-09-06T08:39:22.696Z,100515.91
2022-09-06T08:41:53.287Z,100511.31
2022-09-06T08:47:13.669Z,100520.28
2022-09-06T08:49:42.804Z,100517.56
2022-09-06T08:52:23.837Z,100512.16
2022-09-06T08:54:56.097Z,100514.84
2022-09-06T08:57:34.961Z,100508.41
2022-09-06T09:00:10.432Z,100508.41
2022-09-06T09:02:44.689Z,100504.63
2022-09-06T09:05:21.239Z,100497.56
2022-09-06T09:07:52.440Z,100500.88
2022-09-06T09:10:22.543Z,100502.53
2022-09-06T09:12:50.546Z,100503.34
2022-09-06T09:15:19.564Z,100495.00
2022-09-06T09:17:50.318Z,100502.09
2022-09-06T09:20:18.566Z,100499.38
2022-09-06T09:22:46.570Z,100497.50
2022-09-06T09:25:20.738Z,100507.25
2022-09-06T09:27:50.286Z,100499.13
2022-09-06T09:33:11.015Z,100497.84
2022-09-06T09:35:39.524Z,100495.38
2022-09-06T09:38:11.658Z,100497.84
2022-09-06T09:40:41.915Z,100496.22
2022-09-06T09:43:17.044Z,100494.31
2022-09-06T09:45:45.812Z,100490.78
2022-09-06T09:48:28.273Z,100489.16
2022-09-06T09:50:56.373Z,100488.09
2022-09-06T09:53:26.104Z,100481.59
2022-09-06T09:55:57.634Z,100487.03
2022-09-06T09:58:33.621Z,100484.31
2022-09-06T10:01:17.209Z,100480.78
2022-09-06T10:09:30.798Z,100464.31
2022-09-06T10:11:59.405Z,100471.38
2022-09-06T10:14:29.629Z,100466.78
2022-09-06T10:16:57.804Z,100461.16
2022-09-06T10:19:42.060Z,100461.97
2022-09-06T10:22:23.425Z,100469.06
2022-09-06T10:25:18.812Z,100458.22
2022-09-06T10:28:10.329Z,100459.88
2022-09-06T10:30:42.596Z,100460.69
2022-09-06T10:33:14.996Z,100456.34
2022-09-06T10:35:44.388Z,100457.97
2022-09-06T10:38:19.957Z,100448.22
2022-09-06T10:40:52.483Z,100445.50
2022-09-06T10:43:20.582Z,100444.69
2022-09-06T10:45:55.209Z,100441.13
2022-09-06T10:48:25.237Z,100441.97
2022-09-06T10:50:56.393Z,100424.88
2022-09-06T10:53:33.221Z,100441.13
2022-09-06T10:56:05.856Z,100445.72
2022-09-06T11:01:30.422Z,100431.97
2022-09-06T11:04:04.116Z,100439.84
2022-09-06T11:06:37.742Z,100435.28
2022-09-06T11:09:10.816Z,100431.50
2022-09-06T11:11:42.623Z,100433.16
2022-09-06T11:14:12.807Z,100427.97
2022-09-06T11:16:44.413Z,100437.31
2022-09-06T11:19:15.124Z,100432.72
2022-09-06T11:21:57.271Z,100440.03
2022-09-06T11:24:29.585Z,100438.13
2022-09-06T11:27:02.555Z,100430.00
2022-09-06T11:29:30.956Z,100430.00
2022-09-06T11:32:16.653Z,100428.97
2022-09-06T11:34:52.036Z,100417.31
2022-09-06T11:37:26.490Z,100418.13
2022-09-06T11:43:16.977Z,100412.72
2022-09-06T11:45:47.610Z,100416.47
2022-09-06T11:48:37.814Z,100423.56
2022-09-06T11:51:12.456Z,100412.72
2022-09-06T11:54:10.578Z,100404.81
2022-09-06T11:56:43.531Z,100405.63
2022-09-06T11:59:14.535Z,100398.56
2022-09-06T12:01:42.820Z,100393.16
2022-09-06T12:04:11.255Z,100387.72
2022-09-06T12:06:42.928Z,100383.34
2022-09-06T12:09:32.930Z,100377.72
2022-09-06T12:12:01.504Z,100378.53
2022-09-06T12:14:39.709Z,100371.47
2022-09-06T12:17:31.223Z,100366.06
2022-09-06T12:20:06.496Z,100367.09
2022-09-06T12:22:54.381Z,100371.47
2022-09-06T12:25:55.107Z,100360.81
2022-09-06T12:28:45.174Z,100357.94
2022-09-06T12:31:40.142Z,100349.81
2022-09-06T12:34:13.541Z,100347.09
2022-09-06T12:36:54.401Z,100339.78
2022-09-06T12:39:22.408Z,100342.28
2022-09-06T12:41:52.575Z,100334.38
2022-09-06T12:44:22.700Z,100330.84
2022-09-06T12:46:51.713Z,100332.69
2022-09-06T12:49:21.648Z,100333.34
2022-09-06T12:51:49.847Z,100322.72
2022-09-06T12:54:22.141Z,100320.59
2022-09-06T12:56:51.719Z,100324.13
2022-09-06T12:59:20.315Z,100324.75
2022-09-06T13:01:52.304Z,100318.50
2022-09-06T13:04:26.151Z,100318.50
2022-09-06T13:06:54.560Z,100319.31
2022-09-06T13:09:22.508Z,100313.09
2022-09-06T13:11:52.382Z,100319.06
2022-09-06T13:14:21.237Z,100320.97
2022-09-06T13:16:50.747Z,100317.22
2022-09-06T13:19:19.369Z,100313.44
2022-09-06T13:21:47.851Z,100313.44
2022-09-06T13:24:23.069Z,100315.06
2022-09-06T13:26:52.489Z,100306.13
2022-09-06T13:29:24.257Z,100299.88
2022-09-06T13:31:53.011Z,100308.00
2022-09-06T13:34:24.688Z,100302.59
2022-09-06T13:36:53.084Z,100297.19
2022-09-06T13:39:39.093Z,100305.09
2022-09-06T13:42:08.923Z,100294.47
2022-09-06T13:44:37.220Z,100292.84
2022-09-06T13:47:05.445Z,100292.59
2022-09-06T13:49:33.885Z,100298.59
2022-09-06T13:52:02.693Z,100289.06
2022-09-06T13:54:30.832Z,100288.84
2022-09-06T13:56:58.789Z,100287.16
2022-09-06T13:59:28.961Z,100287.97
2022-09-06T14:02:01.075Z,100278.00
2022-09-06T14:04:29.149Z,100288.84
2022-09-06T14:06:57.434Z,100279.84
2022-09-06T14:09:25.432Z,100282.34
2022-09-06T14:11:53.586Z,100281.53
2022-09-06T14:14:21.656Z,100271.50
2022-09-06T14:16:51.131Z,100269.63
2022-09-06T14:19:19.235Z,100265.03
2022-09-06T14:21:47.342Z,100266.69
2022-09-06T14:24:15.469Z,100263.97
2022-09-06T14:26:43.566Z,100261.28
2022-09-06T14:29:11.616Z,100257.50
2022-09-06T14:31:40.147Z,100263.72
2022-09-06T14:34:09.483Z,100257.50
2022-09-06T14:36:37.472Z,100260.19
2022-09-06T14:39:05.750Z,100255.84
2022-09-06T14:41:33.888Z,100257.75
2022-09-06T14:44:01.964Z,100258.78
2022-09-06T14:46:30.319Z,100260.44
2022-09-06T14:48:59.008Z,100261.28
2022-09-06T14:51:28.461Z,100263.16
2022-09-06T14:53:57.515Z,100257.75
2022-09-06T14:56:26.041Z,100263.38
2022-09-06T14:58:57.404Z,100252.53
2022-09-06T15:01:26.522Z,100257.97
2022-09-06T15:03:56.083Z,100254.19
2022-09-06T15:06:24.595Z,100248.75
2022-09-06T15:08:58.528Z,100249.63
2022-09-06T15:11:31.392Z,100246.06
2022-09-06T15:13:59.583Z,100241.22
2022-09-06T15:16:28.016Z,100239.59
2022-09-06T15:18:56.234Z,100245.84
2022-09-06T15:21:24.678Z,100240.41
2022-09-06T15:23:54.403Z,100244.75
2022-09-06T15:26:22.536Z,100237.44
2022-09-06T15:28:50.604Z,100232.03
2022-09-06T15:31:19.653Z,100232.03
2022-09-06T15:33:48.946Z,100249.13
2022-09-06T15:36:17.139Z,100224.38
2022-09-06T15:38:47.452Z,100229.56
2022-09-06T15:41:17.924Z,100224.97
2022-09-06T15:43:47.529Z,100226.88
2022-09-06T15:46:15.901Z,100228.75
2022-09-06T15:48:44.716Z,100227.09
2022-09-06T15:51:13.620Z,100228.75
2022-09-06T15:53:41.736Z,100227.09
2022-09-06T15:56:13.047Z,100227.94
2022-09-06T15:58:42.604Z,100224.38
2022-09-06T16:01:11.714Z,100234.41
2022-09-06T16:03:40.595Z,100227.09
2022-09-06T16:06:25.408Z,100222.53
2022-09-06T16:08:58.468Z,100217.09
2022-09-06T16:11:26.622Z,100221.66
2022-09-06T16:13:56.257Z,100217.91
2022-09-06T16:16:24.437Z,100220.63
2022-09-06T16:18:53.266Z,100230.41
2022-09-06T16:21:23.981Z,100216.25
2022-09-06T16:23:53.620Z,100217.91
2022-09-06T16:26:21.997Z,100215.22
2022-09-06T16:28:50.710Z,100220.63
2022-09-06T16:31:20.520Z,100211.69
2022-09-06T16:33:48.994Z,100213.53
2022-09-06T16:36:17.550Z,100212.50
2022-09-06T16:38:45.839Z,100214.41
2022-09-06T16:41:14.565Z,100210.84
2022-09-06T16:43:42.863Z,100211.91
2022-09-06T16:46:11.086Z,100208.38
2022-09-06T16:48:41.648Z,100219.22
2022-09-06T16:51:11.118Z,100212.13
2022-09-06T16:53:40.863Z,100215.69
2022-09-06T16:56:09.457Z,100212.97
2022-09-06T16:58:39.219Z,100210.25
2022-09-06T17:01:09.600Z,100210.50
2022-09-06T17:03:37.935Z,100205.88
2022-09-06T17:06:08.101Z,100206.72
2022-09-06T17:08:36.471Z,100212.13
2022-09-06T17:11:04.742Z,100208.59
2022-09-06T17:13:32.844Z,100206.72
2022-09-06T17:16:22.104Z,100212.97
2022-09-06T17:18:52.663Z,100200.47
2022-09-06T17:21:22.354Z,100207.56
2022-09-06T17:23:50.552Z,100210.25
2022-09-06T17:26:19.819Z,100212.13
2022-09-06T17:28:47.920Z,100214.84
2022-09-06T17:31:16.075Z,100212.97
2022-09-06T17:33:44.195Z,100215.69
2022-09-06T17:36:13.549Z,100216.72
2022-09-06T17:38:43.402Z,100216.72
2022-09-06T17:41:13.317Z,100216.72
2022-09-06T17:43:41.375Z,100218.41
2022-09-06T17:46:09.493Z,100213.19
2022-09-06T17:48:37.614Z,100223.22
2022-09-06T17:51:08.859Z,100220.50
2022-09-06T17:53:37.063Z,100230.53
2022-09-06T17:56:07.444Z,100228.03
2022-09-06T17:58:36.362Z,100242.19
2022-09-06T18:01:04.857Z,100242.41
2022-09-06T18:03:33.086Z,100244.28
2022-09-06T18:06:05.419Z,100244.28
2022-09-06T18:08:33.468Z,100239.09
2022-09-06T18:11:09.312Z,100252.41
2022-09-06T18:13:37.464Z,100256.19
2022-09-06T18:16:05.906Z,100252.41
2022-09-06T18:18:34.244Z,100248.88
2022-09-06T18:21:02.705Z,100257.00
2022-09-06T18:23:30.901Z,100255.94
2022-09-06T18:25:59.118Z,100255.13
2022-09-06T18:28:28.996Z,100255.94
2022-09-06T18:30:59.895Z,100258.66
2022-09-06T18:33:28.217Z,100255.13
2022-09-06T18:35:56.438Z,100251.34
2022-09-06T18:38:24.538Z,100255.94
2022-09-06T18:40:53.538Z,100261.34
2022-09-06T18:43:22.479Z,100263.25
2022-09-06T18:45:52.085Z,100271.38
2022-09-06T18:48:20.244Z,100266.19
2022-09-06T18:50:48.523Z,100263.47
2022-09-06T18:53:18.289Z,100275.16
2022-09-06T18:55:46.383Z,100267.03
2022-09-06T18:58:14.503Z,100277.88
2022-09-06T19:00:43.012Z,100281.88
2022-09-06T19:03:12.555Z,100278.09
2022-09-06T19:05:40.600Z,100270.19
2022-09-06T19:08:08.696Z,100271.03
2022-09-06T19:10:36.771Z,100265.59
2022-09-06T19:13:04.882Z,100264.75
2022-09-06T19:15:32.952Z,100259.34
2022-09-06T19:18:01.011Z,100261.22
2022-09-06T19:20:30.566Z,100269.13
2022-09-06T19:22:58.705Z,100261.00
2022-09-06T19:25:26.819Z,100258.31
2022-09-06T19:27:55.151Z,100262.91
2022-09-06T19:30:23.259Z,100255.59
2022-09-06T19:32:51.366Z,100255.59
2022-09-06T19:35:19.811Z,100261.84
2022-09-06T19:37:49.261Z,100251.81
2022-09-06T19:40:17.648Z,100257.22
2022-09-06T19:42:45.851Z,100261.84
2022-09-06T19:45:14.148Z,100250.19
2022-09-06T19:47:42.263Z,100256.63
2022-09-06T19:50:10.521Z,100253.91
2022-09-06T19:52:38.614Z,100245.78
2022-09-06T19:55:08.929Z,100253.91
2022-09-06T19:57:37.071Z,100246.88
2022-09-06T20:00:05.779Z,100246.88
2022-09-06T20:02:33.907Z,100246.88
2022-09-06T20:05:02.046Z,100245.19
2022-09-06T20:07:30.171Z,100245.41
2022-09-06T20:09:58.251Z,100247.06
2022-09-06T20:12:29.738Z,100246.22
2022-09-06T20:14:58.255Z,100243.53
2022-09-06T20:17:34.485Z,100246.47
2022-09-06T20:20:03.033Z,100242.72
2022-09-06T20:22:31.110Z,100233.75
2022-09-06T20:24:59.829Z,100238.09
2022-09-06T20:27:29.959Z,100234.56
2022-09-06T20:29:59.205Z,100236.22
2022-09-06T20:32:27.454Z,100228.09
2022-09-06T20:34:55.574Z,100232.69
2022-09-06T20:37:23.686Z,100227.28
2022-09-06T20:39:51.827Z,100232.47
2022-09-06T20:42:19.955Z,100223.53
2022-09-06T20:44:49.420Z,100230.81
2022-09-06T20:47:17.485Z,100229.97
2022-09-06T20:49:45.784Z,100220.22
2022-09-06T20:52:13.841Z,100227.28
2022-09-06T20:54:42.527Z,100230.22
2022-09-06T20:57:10.654Z,100234.84
2022-09-06T20:59:38.748Z,100233.16
2022-09-06T21:02:08.288Z,100230.22
2022-09-06T21:04:36.364Z,100233.97
2022-09-06T21:07:04.613Z,100233.16
2022-09-06T21:09:32.808Z,100235.28
2022-09-06T21:12:00.845Z,100230.44
2022-09-06T21:14:29.069Z,100245.06
2022-09-06T21:16:57.227Z,100238.81
2022-09-06T21:19:26.889Z,100232.56
2022-09-06T21:21:55.004Z,100227.16
2022-09-06T21:24:23.083Z,100224.44
2022-09-06T21:26:51.176Z,100232.56
2022-09-06T21:29:19.259Z,100219.03
2022-09-06T21:31:47.630Z,100231.53
2022-09-06T21:34:17.309Z,100214.66
2022-09-06T21:36:46.986Z,100216.91
2022-09-06T21:39:15.279Z,100219.88
2022-09-06T21:41:43.867Z,100220.69
2022-09-06T21:44:14.836Z,100216.91
2022-09-06T21:46:43.029Z,100221.50
2022-09-06T21:49:12.866Z,100220.69
2022-09-06T21:51:41.107Z,100226.94
2022-09-06T21:54:10.565Z,100225.28
2022-09-06T21:56:39.215Z,100226.09
2022-09-06T21:59:07.381Z,100224.44
2022-09-06T22:01:36.399Z,100215.50
2022-09-06T22:04:04.506Z,100219.28
2022-09-06T22:06:33.436Z,100218.19
2022-09-06T22:09:02.359Z,100216.56
2022-09-06T22:11:34.019Z,100222.78
2022-09-06T22:14:02.578Z,100220.31
2022-09-06T22:16:33.219Z,100220.31
2022-09-06T22:19:01.498Z,100212.44
2022-09-06T22:21:29.558Z,100212.44
2022-09-06T22:23:58.275Z,100214.06
2022-09-06T22:26:26.759Z,100215.97
2022-09-06T22:28:56.816Z,100215.16
2022-09-06T22:31:25.210Z,100211.63
2022-09-06T22:33:53.386Z,100207.00
2022-09-06T22:36:21.648Z,100202.41
2022-09-06T22:38:53.079Z,100214.06
2022-09-06T22:41:21.166Z,100211.38
2022-09-06T22:43:49.242Z,100205.94
2022-09-06T22:46:18.793Z,100211.38
2022-09-06T22:48:46.916Z,100210.31
2022-09-06T22:51:14.963Z,100206.75
2022-09-06T22:53:43.029Z,100205.13
2022-09-06T22:56:11.204Z,100192.41
2022-09-06T22:58:39.308Z,100180.75
2022-09-06T23:01:09.209Z,100193.47
2022-09-06T23:03:38.887Z,100193.47
2022-09-06T23:06:07.083Z,100191.81
2022-09-06T23:08:35.445Z,100186.63
2022-09-06T23:11:05.525Z,100195.59
2022-09-06T23:13:33.568Z,100190.38
2022-09-06T23:16:04.129Z,100193.94
2022-09-06T23:18:32.230Z,100195.00
2022-09-06T23:21:08.942Z,100186.03
2022-09-06T23:23:37.128Z,100186.03
2022-09-06T23:26:06.473Z,100184.16
2022-09-06T23:28:34.515Z,100191.69
2022-09-06T23:31:06.321Z,100181.69
2022-09-06T23:33:37.244Z,100180.84
2022-09-06T23:36:07.345Z,100177.91
2022-09-06T23:38:35.901Z,100175.44
2022-09-06T23:41:03.999Z,100182.50
2022-09-06T23:43:32.043Z,100178.13
2022-09-06T23:46:00.317Z,100182.50
2022-09-06T23:48:28.614Z,100184.16
2022-09-06T23:50:56.689Z,100177.09
2022-09-06T23:53:26.250Z,100177.09
2022-09-06T23:55:54.339Z,100173.31
2022-09-06T23:58:22.395Z,100178.97
